sensor_id;sensor_type;location;lat;lon;timestamp;P1;durP1;ratioP1;P2;durP2;ratioP2
45232;SDS011;30969;51.052;17.056;2023-02-12T00:02:21;26.85;;;16.50;;
45232;SDS011;30969;51.052;17.056;2023-02-12T00:07:25;27.42;;;17.05;;
45232;SDS011;30969;51.052;17.056;2023-02-12T00:12:32;30.80;;;18.13;;
45232;SDS011;30969;51.052;17.056;2023-02-12T00:17:36;26.95;;;17.63;;
45232;SDS011;30969;51.052;17.056;2023-02-12T00:22:39;29.40;;;17.13;;
45232;SDS011;30969;51.052;17.056;2023-02-12T00:27:44;31.08;;;18.35;;
45232;SDS011;30969;51.052;17.056;2023-02-12T00:32:48;29.30;;;17.95;;
45232;SDS011;30969;51.052;17.056;2023-02-12T00:37:51;28.23;;;16.73;;
45232;SDS011;30969;51.052;17.056;2023-02-12T00:42:56;29.52;;;18.00;;
45232;SDS011;30969;51.052;17.056;2023-02-12T00:47:59;32.10;;;16.80;;
45232;SDS011;30969;51.052;17.056;2023-02-12T00:53:03;28.63;;;16.42;;
45232;SDS011;30969;51.052;17.056;2023-02-12T00:58:08;33.78;;;17.25;;
45232;SDS011;30969;51.052;17.056;2023-02-12T01:03:11;27.30;;;15.82;;
45232;SDS011;30969;51.052;17.056;2023-02-12T01:08:16;28.95;;;15.10;;
45232;SDS011;30969;51.052;17.056;2023-02-12T01:13:22;25.83;;;15.88;;
45232;SDS011;30969;51.052;17.056;2023-02-12T01:18:26;28.27;;;15.75;;
45232;SDS011;30969;51.052;17.056;2023-02-12T01:23:30;28.88;;;17.25;;
45232;SDS011;30969;51.052;17.056;2023-02-12T01:28:35;26.52;;;15.98;;
45232;SDS011;30969;51.052;17.056;2023-02-12T01:33:38;30.40;;;16.58;;
45232;SDS011;30969;51.052;17.056;2023-02-12T01:38:42;25.60;;;15.52;;
45232;SDS011;30969;51.052;17.056;2023-02-12T01:49:11;26.88;;;15.95;;
45232;SDS011;30969;51.052;17.056;2023-02-12T01:54:18;22.13;;;14.43;;
45232;SDS011;30969;51.052;17.056;2023-02-12T01:59:25;28.42;;;15.35;;
45232;SDS011;30969;51.052;17.056;2023-02-12T02:04:30;27.63;;;15.57;;
45232;SDS011;30969;51.052;17.056;2023-02-12T02:09:37;24.40;;;14.02;;
45232;SDS011;30969;51.052;17.056;2023-02-12T02:14:43;27.23;;;15.40;;
45232;SDS011;30969;51.052;17.056;2023-02-12T02:25:37;26.60;;;15.35;;
45232;SDS011;30969;51.052;17.056;2023-02-12T02:31:05;25.92;;;14.65;;
45232;SDS011;30969;51.052;17.056;2023-02-12T02:41:28;25.77;;;15.63;;
45232;SDS011;30969;51.052;17.056;2023-02-12T02:46:39;24.77;;;14.52;;
45232;SDS011;30969;51.052;17.056;2023-02-12T02:51:48;20.15;;;12.23;;
45232;SDS011;30969;51.052;17.056;2023-02-12T02:57:07;25.50;;;14.65;;
45232;SDS011;30969;51.052;17.056;2023-02-12T03:02:17;23.65;;;13.07;;
45232;SDS011;30969;51.052;17.056;2023-02-12T03:07:24;25.20;;;13.15;;
45232;SDS011;30969;51.052;17.056;2023-02-12T03:12:30;26.35;;;13.93;;
45232;SDS011;30969;51.052;17.056;2023-02-12T03:17:40;25.40;;;13.10;;
45232;SDS011;30969;51.052;17.056;2023-02-12T03:22:48;23.00;;;13.18;;
45232;SDS011;30969;51.052;17.056;2023-02-12T03:27:57;20.05;;;11.15;;
45232;SDS011;30969;51.052;17.056;2023-02-12T03:33:08;25.23;;;12.75;;
45232;SDS011;30969;51.052;17.056;2023-02-12T03:38:30;28.58;;;12.93;;
45232;SDS011;30969;51.052;17.056;2023-02-12T03:43:41;34.80;;;12.85;;
45232;SDS011;30969;51.052;17.056;2023-02-12T03:48:56;23.45;;;12.43;;
45232;SDS011;30969;51.052;17.056;2023-02-12T03:54:02;21.35;;;10.93;;
45232;SDS011;30969;51.052;17.056;2023-02-12T03:59:07;24.40;;;11.68;;
45232;SDS011;30969;51.052;17.056;2023-02-12T04:04:13;27.88;;;11.27;;
45232;SDS011;30969;51.052;17.056;2023-02-12T04:09:17;28.85;;;11.00;;
45232;SDS011;30969;51.052;17.056;2023-02-12T04:14:23;26.00;;;10.63;;
45232;SDS011;30969;51.052;17.056;2023-02-12T04:19:41;21.38;;;10.50;;
45232;SDS011;30969;51.052;17.056;2023-02-12T04:24:56;24.13;;;11.32;;
45232;SDS011;30969;51.052;17.056;2023-02-12T04:30:10;27.98;;;11.77;;
45232;SDS011;30969;51.052;17.056;2023-02-12T04:35:24;29.13;;;13.90;;
45232;SDS011;30969;51.052;17.056;2023-02-12T04:40:33;23.30;;;9.65;;
45232;SDS011;30969;51.052;17.056;2023-02-12T04:45:37;25.23;;;11.20;;
45232;SDS011;30969;51.052;17.056;2023-02-12T04:50:42;20.52;;;9.55;;
45232;SDS011;30969;51.052;17.056;2023-02-12T04:55:47;19.83;;;10.82;;
45232;SDS011;30969;51.052;17.056;2023-02-12T05:00:51;25.30;;;10.23;;
45232;SDS011;30969;51.052;17.056;2023-02-12T05:06:00;21.02;;;10.10;;
45232;SDS011;30969;51.052;17.056;2023-02-12T05:11:05;22.75;;;10.18;;
45232;SDS011;30969;51.052;17.056;2023-02-12T05:16:09;24.40;;;10.45;;
45232;SDS011;30969;51.052;17.056;2023-02-12T05:21:14;26.23;;;10.48;;
45232;SDS011;30969;51.052;17.056;2023-02-12T05:26:19;33.97;;;11.70;;
45232;SDS011;30969;51.052;17.056;2023-02-12T05:31:23;23.40;;;9.48;;
45232;SDS011;30969;51.052;17.056;2023-02-12T05:36:28;27.23;;;10.15;;
45232;SDS011;30969;51.052;17.056;2023-02-12T05:41:32;25.95;;;10.88;;
45232;SDS011;30969;51.052;17.056;2023-02-12T05:46:36;26.30;;;10.10;;
45232;SDS011;30969;51.052;17.056;2023-02-12T05:51:41;27.08;;;9.65;;
45232;SDS011;30969;51.052;17.056;2023-02-12T05:56:46;25.95;;;14.40;;
45232;SDS011;30969;51.052;17.056;2023-02-12T06:01:50;30.20;;;11.43;;
45232;SDS011;30969;51.052;17.056;2023-02-12T06:06:55;26.55;;;8.80;;
45232;SDS011;30969;51.052;17.056;2023-02-12T06:11:58;23.48;;;9.38;;
45232;SDS011;30969;51.052;17.056;2023-02-12T06:17:02;22.38;;;9.13;;
45232;SDS011;30969;51.052;17.056;2023-02-12T06:22:07;28.55;;;9.05;;
45232;SDS011;30969;51.052;17.056;2023-02-12T06:27:11;19.58;;;8.98;;
45232;SDS011;30969;51.052;17.056;2023-02-12T06:32:14;26.38;;;9.57;;
45232;SDS011;30969;51.052;17.056;2023-02-12T06:37:19;26.13;;;10.70;;
45232;SDS011;30969;51.052;17.056;2023-02-12T06:42:22;28.52;;;9.63;;
45232;SDS011;30969;51.052;17.056;2023-02-12T06:47:26;23.27;;;10.93;;
45232;SDS011;30969;51.052;17.056;2023-02-12T06:52:30;20.17;;;9.77;;
45232;SDS011;30969;51.052;17.056;2023-02-12T06:57:34;21.17;;;9.15;;
45232;SDS011;30969;51.052;17.056;2023-02-12T07:02:37;23.50;;;9.55;;
45232;SDS011;30969;51.052;17.056;2023-02-12T07:07:42;23.40;;;10.00;;
45232;SDS011;30969;51.052;17.056;2023-02-12T07:12:46;24.70;;;10.57;;
45232;SDS011;30969;51.052;17.056;2023-02-12T07:17:49;29.05;;;10.25;;
45232;SDS011;30969;51.052;17.056;2023-02-12T07:22:54;19.48;;;8.95;;
45232;SDS011;30969;51.052;17.056;2023-02-12T07:27:58;18.42;;;9.15;;
45232;SDS011;30969;51.052;17.056;2023-02-12T07:33:02;20.73;;;9.35;;
45232;SDS011;30969;51.052;17.056;2023-02-12T07:38:07;22.02;;;9.23;;
45232;SDS011;30969;51.052;17.056;2023-02-12T07:43:11;19.38;;;9.98;;
45232;SDS011;30969;51.052;17.056;2023-02-12T07:48:15;23.65;;;8.45;;
45232;SDS011;30969;51.052;17.056;2023-02-12T07:53:20;23.50;;;9.43;;
45232;SDS011;30969;51.052;17.056;2023-02-12T07:58:23;24.63;;;9.93;;
45232;SDS011;30969;51.052;17.056;2023-02-12T08:03:27;28.73;;;11.02;;
45232;SDS011;30969;51.052;17.056;2023-02-12T08:08:32;29.75;;;10.13;;
45232;SDS011;30969;51.052;17.056;2023-02-12T08:13:35;23.90;;;8.75;;
45232;SDS011;30969;51.052;17.056;2023-02-12T08:18:39;27.25;;;9.60;;
45232;SDS011;30969;51.052;17.056;2023-02-12T08:23:45;22.70;;;9.82;;
45232;SDS011;30969;51.052;17.056;2023-02-12T08:28:52;20.45;;;8.18;;
45232;SDS011;30969;51.052;17.056;2023-02-12T08:33:57;27.08;;;10.40;;
45232;SDS011;30969;51.052;17.056;2023-02-12T08:39:03;27.73;;;10.05;;
45232;SDS011;30969;51.052;17.056;2023-02-12T08:44:07;30.02;;;10.88;;
45232;SDS011;30969;51.052;17.056;2023-02-12T08:49:12;22.98;;;9.07;;
45232;SDS011;30969;51.052;17.056;2023-02-12T08:54:19;22.73;;;10.07;;
45232;SDS011;30969;51.052;17.056;2023-02-12T08:59:25;28.30;;;9.95;;
45232;SDS011;30969;51.052;17.056;2023-02-12T09:04:29;29.38;;;10.43;;
45232;SDS011;30969;51.052;17.056;2023-02-12T09:09:34;37.15;;;10.85;;
45232;SDS011;30969;51.052;17.056;2023-02-12T09:14:37;20.42;;;9.82;;
45232;SDS011;30969;51.052;17.056;2023-02-12T09:19:41;24.13;;;10.93;;
45232;SDS011;30969;51.052;17.056;2023-02-12T09:24:45;32.92;;;11.95;;
45232;SDS011;30969;51.052;17.056;2023-02-12T09:29:49;32.50;;;11.02;;
45232;SDS011;30969;51.052;17.056;2023-02-12T09:34:52;23.45;;;10.02;;
45232;SDS011;30969;51.052;17.056;2023-02-12T09:39:57;30.83;;;11.05;;
45232;SDS011;30969;51.052;17.056;2023-02-12T09:45:02;25.02;;;10.48;;
45232;SDS011;30969;51.052;17.056;2023-02-12T09:50:16;26.73;;;10.40;;
45232;SDS011;30969;51.052;17.056;2023-02-12T09:55:35;31.77;;;11.50;;
45232;SDS011;30969;51.052;17.056;2023-02-12T10:00:38;26.23;;;10.75;;
45232;SDS011;30969;51.052;17.056;2023-02-12T10:05:43;31.77;;;11.05;;
45232;SDS011;30969;51.052;17.056;2023-02-12T10:10:52;27.33;;;9.68;;
45232;SDS011;30969;51.052;17.056;2023-02-12T10:16:03;25.20;;;8.73;;
45232;SDS011;30969;51.052;17.056;2023-02-12T10:26:24;26.27;;;10.52;;
45232;SDS011;30969;51.052;17.056;2023-02-12T10:31:33;25.05;;;10.10;;
45232;SDS011;30969;51.052;17.056;2023-02-12T10:36:40;24.95;;;10.00;;
45232;SDS011;30969;51.052;17.056;2023-02-12T10:41:47;22.67;;;9.80;;
45232;SDS011;30969;51.052;17.056;2023-02-12T10:46:56;17.88;;;9.40;;
45232;SDS011;30969;51.052;17.056;2023-02-12T10:52:02;24.52;;;9.82;;
45232;SDS011;30969;51.052;17.056;2023-02-12T10:57:16;21.38;;;8.80;;
45232;SDS011;30969;51.052;17.056;2023-02-12T11:02:23;18.33;;;8.68;;
45232;SDS011;30969;51.052;17.056;2023-02-12T11:07:28;22.40;;;8.55;;
45232;SDS011;30969;51.052;17.056;2023-02-12T11:12:51;18.33;;;8.18;;
45232;SDS011;30969;51.052;17.056;2023-02-12T11:17:56;14.88;;;6.60;;
45232;SDS011;30969;51.052;17.056;2023-02-12T11:23:02;23.05;;;8.35;;
45232;SDS011;30969;51.052;17.056;2023-02-12T11:28:15;22.60;;;7.63;;
45232;SDS011;30969;51.052;17.056;2023-02-12T11:33:28;17.85;;;8.95;;
45232;SDS011;30969;51.052;17.056;2023-02-12T11:38:34;20.63;;;8.93;;
45232;SDS011;30969;51.052;17.056;2023-02-12T11:43:42;15.32;;;7.82;;
45232;SDS011;30969;51.052;17.056;2023-02-12T11:48:46;13.98;;;6.85;;
45232;SDS011;30969;51.052;17.056;2023-02-12T11:53:51;20.25;;;8.10;;
45232;SDS011;30969;51.052;17.056;2023-02-12T11:59:08;13.85;;;6.45;;
45232;SDS011;30969;51.052;17.056;2023-02-12T12:04:19;17.88;;;7.43;;
45232;SDS011;30969;51.052;17.056;2023-02-12T12:09:27;18.52;;;6.85;;
45232;SDS011;30969;51.052;17.056;2023-02-12T12:14:40;17.55;;;5.60;;
45232;SDS011;30969;51.052;17.056;2023-02-12T12:20:08;11.05;;;4.63;;
45232;SDS011;30969;51.052;17.056;2023-02-12T12:25:20;13.70;;;4.70;;
45232;SDS011;30969;51.052;17.056;2023-02-12T12:30:31;19.00;;;6.28;;
45232;SDS011;30969;51.052;17.056;2023-02-12T12:35:43;14.18;;;6.07;;
45232;SDS011;30969;51.052;17.056;2023-02-12T12:40:56;15.88;;;6.30;;
45232;SDS011;30969;51.052;17.056;2023-02-12T12:51:40;18.55;;;7.35;;
45232;SDS011;30969;51.052;17.056;2023-02-12T12:57:03;13.52;;;5.18;;
45232;SDS011;30969;51.052;17.056;2023-02-12T13:02:36;11.93;;;3.90;;
45232;SDS011;30969;51.052;17.056;2023-02-12T13:08:05;13.82;;;4.55;;
45232;SDS011;30969;51.052;17.056;2023-02-12T13:13:23;16.38;;;5.80;;
45232;SDS011;30969;51.052;17.056;2023-02-12T13:18:36;15.23;;;6.65;;
45232;SDS011;30969;51.052;17.056;2023-02-12T13:23:52;15.75;;;4.68;;
45232;SDS011;30969;51.052;17.056;2023-02-12T13:29:00;15.82;;;4.07;;
45232;SDS011;30969;51.052;17.056;2023-02-12T13:34:12;10.50;;;4.40;;
45232;SDS011;30969;51.052;17.056;2023-02-12T13:39:21;12.32;;;3.78;;
45232;SDS011;30969;51.052;17.056;2023-02-12T13:44:35;12.73;;;5.13;;
45232;SDS011;30969;51.052;17.056;2023-02-12T13:49:47;11.18;;;3.90;;
45232;SDS011;30969;51.052;17.056;2023-02-12T13:54:57;9.85;;;4.20;;
45232;SDS011;30969;51.052;17.056;2023-02-12T14:06:11;17.27;;;4.25;;
45232;SDS011;30969;51.052;17.056;2023-02-12T14:11:18;11.48;;;4.00;;
45232;SDS011;30969;51.052;17.056;2023-02-12T14:16:37;9.07;;;3.75;;
45232;SDS011;30969;51.052;17.056;2023-02-12T14:21:43;12.32;;;2.90;;
45232;SDS011;30969;51.052;17.056;2023-02-12T14:26:46;14.38;;;4.13;;
45232;SDS011;30969;51.052;17.056;2023-02-12T14:31:50;10.05;;;2.78;;
45232;SDS011;30969;51.052;17.056;2023-02-12T14:47:57;11.88;;;2.83;;
45232;SDS011;30969;51.052;17.056;2023-02-12T14:53:04;15.95;;;3.20;;
45232;SDS011;30969;51.052;17.056;2023-02-12T14:58:17;8.68;;;2.83;;
45232;SDS011;30969;51.052;17.056;2023-02-12T15:03:24;12.70;;;3.38;;
45232;SDS011;30969;51.052;17.056;2023-02-12T15:08:35;9.52;;;3.28;;
45232;SDS011;30969;51.052;17.056;2023-02-12T15:13:48;16.70;;;3.80;;
45232;SDS011;30969;51.052;17.056;2023-02-12T15:18:57;11.35;;;4.07;;
45232;SDS011;30969;51.052;17.056;2023-02-12T15:24:05;13.02;;;3.60;;
45232;SDS011;30969;51.052;17.056;2023-02-12T15:29:17;8.45;;;3.20;;
45232;SDS011;30969;51.052;17.056;2023-02-12T15:34:24;14.15;;;4.10;;
45232;SDS011;30969;51.052;17.056;2023-02-12T15:39:31;15.07;;;5.10;;
45232;SDS011;30969;51.052;17.056;2023-02-12T15:44:43;14.15;;;5.13;;
45232;SDS011;30969;51.052;17.056;2023-02-12T15:49:46;11.07;;;4.50;;
45232;SDS011;30969;51.052;17.056;2023-02-12T15:54:50;14.95;;;5.60;;
45232;SDS011;30969;51.052;17.056;2023-02-12T15:59:55;14.57;;;4.97;;
45232;SDS011;30969;51.052;17.056;2023-02-12T16:05:04;14.10;;;4.45;;
45232;SDS011;30969;51.052;17.056;2023-02-12T16:10:09;19.40;;;5.20;;
45232;SDS011;30969;51.052;17.056;2023-02-12T16:15:25;17.33;;;5.72;;
45232;SDS011;30969;51.052;17.056;2023-02-12T16:20:32;13.65;;;6.40;;
45232;SDS011;30969;51.052;17.056;2023-02-12T16:25:35;18.23;;;6.32;;
45232;SDS011;30969;51.052;17.056;2023-02-12T16:30:42;14.93;;;6.35;;
45232;SDS011;30969;51.052;17.056;2023-02-12T16:35:58;20.95;;;7.47;;
45232;SDS011;30969;51.052;17.056;2023-02-12T16:41:13;22.33;;;8.82;;
45232;SDS011;30969;51.052;17.056;2023-02-12T16:46:23;22.13;;;9.40;;
45232;SDS011;30969;51.052;17.056;2023-02-12T16:51:29;22.60;;;10.07;;
45232;SDS011;30969;51.052;17.056;2023-02-12T16:56:35;22.65;;;10.48;;
45232;SDS011;30969;51.052;17.056;2023-02-12T17:01:41;26.42;;;12.27;;
45232;SDS011;30969;51.052;17.056;2023-02-12T17:06:58;29.38;;;12.07;;
45232;SDS011;30969;51.052;17.056;2023-02-12T17:12:02;29.48;;;10.98;;
45232;SDS011;30969;51.052;17.056;2023-02-12T17:17:07;24.25;;;10.45;;
45232;SDS011;30969;51.052;17.056;2023-02-12T17:22:15;20.95;;;11.90;;
45232;SDS011;30969;51.052;17.056;2023-02-12T17:27:23;26.53;;;12.47;;
45232;SDS011;30969;51.052;17.056;2023-02-12T17:32:28;29.13;;;10.77;;
45232;SDS011;30969;51.052;17.056;2023-02-12T17:37:32;26.52;;;11.10;;
45232;SDS011;30969;51.052;17.056;2023-02-12T17:42:35;22.10;;;12.27;;
45232;SDS011;30969;51.052;17.056;2023-02-12T17:47:41;25.08;;;12.30;;
45232;SDS011;30969;51.052;17.056;2023-02-12T17:52:44;28.92;;;13.93;;
45232;SDS011;30969;51.052;17.056;2023-02-12T17:57:51;26.60;;;13.57;;
45232;SDS011;30969;51.052;17.056;2023-02-12T18:02:56;27.65;;;14.82;;
45232;SDS011;30969;51.052;17.056;2023-02-12T18:08:00;32.63;;;16.98;;
45232;SDS011;30969;51.052;17.056;2023-02-12T18:13:04;29.48;;;14.95;;
45232;SDS011;30969;51.052;17.056;2023-02-12T18:18:09;29.55;;;15.23;;
45232;SDS011;30969;51.052;17.056;2023-02-12T18:23:13;29.13;;;16.08;;
45232;SDS011;30969;51.052;17.056;2023-02-12T18:28:16;26.63;;;14.18;;
45232;SDS011;30969;51.052;17.056;2023-02-12T18:33:22;29.00;;;13.85;;
45232;SDS011;30969;51.052;17.056;2023-02-12T18:38:25;30.58;;;14.65;;
45232;SDS011;30969;51.052;17.056;2023-02-12T18:43:29;25.50;;;12.85;;
45232;SDS011;30969;51.052;17.056;2023-02-12T18:48:36;29.38;;;12.75;;
45232;SDS011;30969;51.052;17.056;2023-02-12T18:53:40;26.27;;;13.68;;
45232;SDS011;30969;51.052;17.056;2023-02-12T18:58:43;28.98;;;13.52;;
45232;SDS011;30969;51.052;17.056;2023-02-12T19:03:51;26.25;;;13.80;;
45232;SDS011;30969;51.052;17.056;2023-02-12T19:08:56;26.55;;;14.45;;
45232;SDS011;30969;51.052;17.056;2023-02-12T19:14:00;28.58;;;13.85;;
45232;SDS011;30969;51.052;17.056;2023-02-12T19:19:05;26.10;;;13.65;;
45232;SDS011;30969;51.052;17.056;2023-02-12T19:24:09;28.45;;;12.45;;
45232;SDS011;30969;51.052;17.056;2023-02-12T19:29:14;25.08;;;12.57;;
45232;SDS011;30969;51.052;17.056;2023-02-12T19:34:20;21.40;;;11.32;;
45232;SDS011;30969;51.052;17.056;2023-02-12T19:39:25;26.13;;;12.55;;
45232;SDS011;30969;51.052;17.056;2023-02-12T19:44:29;28.20;;;12.95;;
45232;SDS011;30969;51.052;17.056;2023-02-12T19:49:34;27.05;;;12.70;;
45232;SDS011;30969;51.052;17.056;2023-02-12T19:54:38;30.13;;;14.05;;
45232;SDS011;30969;51.052;17.056;2023-02-12T19:59:42;26.35;;;12.00;;
45232;SDS011;30969;51.052;17.056;2023-02-12T20:04:48;29.95;;;13.20;;
45232;SDS011;30969;51.052;17.056;2023-02-12T20:09:52;29.33;;;12.43;;
45232;SDS011;30969;51.052;17.056;2023-02-12T20:14:56;33.03;;;13.02;;
45232;SDS011;30969;51.052;17.056;2023-02-12T20:20:03;32.47;;;13.40;;
45232;SDS011;30969;51.052;17.056;2023-02-12T20:25:07;29.10;;;11.95;;
45232;SDS011;30969;51.052;17.056;2023-02-12T20:30:11;36.53;;;13.52;;
45232;SDS011;30969;51.052;17.056;2023-02-12T20:35:17;28.13;;;14.18;;
45232;SDS011;30969;51.052;17.056;2023-02-12T20:40:21;33.25;;;13.85;;
45232;SDS011;30969;51.052;17.056;2023-02-12T20:45:25;27.65;;;13.10;;
45232;SDS011;30969;51.052;17.056;2023-02-12T20:50:30;28.73;;;12.50;;
45232;SDS011;30969;51.052;17.056;2023-02-12T20:55:34;27.70;;;12.52;;
45232;SDS011;30969;51.052;17.056;2023-02-12T21:00:38;24.42;;;11.50;;
45232;SDS011;30969;51.052;17.056;2023-02-12T21:05:43;29.98;;;11.45;;
45232;SDS011;30969;51.052;17.056;2023-02-12T21:10:46;26.15;;;11.80;;
45232;SDS011;30969;51.052;17.056;2023-02-12T21:15:50;25.42;;;13.90;;
45232;SDS011;30969;51.052;17.056;2023-02-12T21:21:00;34.97;;;14.85;;
45232;SDS011;30969;51.052;17.056;2023-02-12T21:26:05;23.88;;;12.07;;
45232;SDS011;30969;51.052;17.056;2023-02-12T21:31:11;29.92;;;12.63;;
45232;SDS011;30969;51.052;17.056;2023-02-12T21:36:18;25.17;;;11.55;;
45232;SDS011;30969;51.052;17.056;2023-02-12T21:41:24;26.10;;;13.30;;
45232;SDS011;30969;51.052;17.056;2023-02-12T21:46:29;22.98;;;13.15;;
45232;SDS011;30969;51.052;17.056;2023-02-12T21:51:34;26.10;;;13.13;;
45232;SDS011;30969;51.052;17.056;2023-02-12T21:56:40;28.88;;;12.05;;
45232;SDS011;30969;51.052;17.056;2023-02-12T22:01:45;31.30;;;13.02;;
45232;SDS011;30969;51.052;17.056;2023-02-12T22:06:51;22.80;;;12.40;;
45232;SDS011;30969;51.052;17.056;2023-02-12T22:11:54;27.17;;;13.13;;
45232;SDS011;30969;51.052;17.056;2023-02-12T22:16:58;26.02;;;12.82;;
45232;SDS011;30969;51.052;17.056;2023-02-12T22:22:03;30.92;;;13.38;;
45232;SDS011;30969;51.052;17.056;2023-02-12T22:27:06;34.33;;;15.60;;
45232;SDS011;30969;51.052;17.056;2023-02-12T22:32:10;32.88;;;14.35;;
45232;SDS011;30969;51.052;17.056;2023-02-12T22:37:15;28.15;;;13.68;;
45232;SDS011;30969;51.052;17.056;2023-02-12T22:42:18;30.25;;;13.88;;
45232;SDS011;30969;51.052;17.056;2023-02-12T22:47:22;28.55;;;13.38;;
45232;SDS011;30969;51.052;17.056;2023-02-12T22:52:27;28.48;;;13.10;;
45232;SDS011;30969;51.052;17.056;2023-02-12T22:57:33;26.58;;;13.02;;
45232;SDS011;30969;51.052;17.056;2023-02-12T23:02:36;24.45;;;12.23;;
45232;SDS011;30969;51.052;17.056;2023-02-12T23:07:41;26.50;;;12.35;;
45232;SDS011;30969;51.052;17.056;2023-02-12T23:12:45;33.05;;;14.73;;
45232;SDS011;30969;51.052;17.056;2023-02-12T23:17:49;23.25;;;13.98;;
45232;SDS011;30969;51.052;17.056;2023-02-12T23:22:54;23.17;;;12.38;;
45232;SDS011;30969;51.052;17.056;2023-02-12T23:27:58;23.70;;;11.98;;
45232;SDS011;30969;51.052;17.056;2023-02-12T23:33:01;25.38;;;11.98;;
45232;SDS011;30969;51.052;17.056;2023-02-12T23:38:06;19.63;;;11.45;;
45232;SDS011;30969;51.052;17.056;2023-02-12T23:43:10;23.92;;;11.43;;
45232;SDS011;30969;51.052;17.056;2023-02-12T23:48:13;24.45;;;11.60;;
45232;SDS011;30969;51.052;17.056;2023-02-12T23:53:19;22.08;;;10.75;;
45232;SDS011;30969;51.052;17.056;2023-02-12T23:58:23;23.05;;;11.48;;
